Turiacu, Brazil
Current Conditions -  °F | °C
As of 5:00 AM on Friday 24 Oct 2014 (Local Time) from SBSL Reporting Station
Scattered Clouds Scattered Clouds  
Wind Chill: 79°   Ceiling: Unl
Heat Index: 81°   Visibility: 6mi
Dew Point: 70°   Wind: 10mph
Humidity: 74%   Direction: 60°ENE
Pressure: 29.8"   Gusts: NA
Location:  1.66°S, 45.37°W
Report Text: SBSL 240800Z 06009KT 9999 SCT017 26/21 Q1009
Loading
Personal Weather Stations






























Interactive Weather Map
Tropical Storm Tracking
New forecast layout! Learn more

10-Day Weather Forecast

Advertisements
Track Severe Weather on mobile